sensor_id;sensor_type;location;lat;lon;timestamp;temperature;humidity
5846;DHT22;2949;50.778;7.094;2023-05-21T00:00:10;12.10;99.90
5846;DHT22;2949;50.778;7.094;2023-05-21T00:02:37;12.10;99.90
5846;DHT22;2949;50.778;7.094;2023-05-21T00:05:02;12.10;99.90
5846;DHT22;2949;50.778;7.094;2023-05-21T00:07:28;12.10;99.90
5846;DHT22;2949;50.778;7.094;2023-05-21T00:09:55;12.10;99.90
5846;DHT22;2949;50.778;7.094;2023-05-21T00:12:21;12.20;99.90
5846;DHT22;2949;50.778;7.094;2023-05-21T00:14:46;12.10;99.90
5846;DHT22;2949;50.778;7.094;2023-05-21T00:17:12;12.20;99.90
5846;DHT22;2949;50.778;7.094;2023-05-21T00:19:37;12.10;99.90
5846;DHT22;2949;50.778;7.094;2023-05-21T00:22:04;12.10;99.90
5846;DHT22;2949;50.778;7.094;2023-05-21T00:24:30;12.10;99.90
5846;DHT22;2949;50.778;7.094;2023-05-21T00:26:55;12.10;99.90
5846;DHT22;2949;50.778;7.094;2023-05-21T00:29:21;12.10;99.90
5846;DHT22;2949;50.778;7.094;2023-05-21T00:31:47;12.10;99.90
5846;DHT22;2949;50.778;7.094;2023-05-21T00:34:15;12.10;99.90
5846;DHT22;2949;50.778;7.094;2023-05-21T00:36:40;12.10;99.90
5846;DHT22;2949;50.778;7.094;2023-05-21T00:39:10;12.10;99.90
5846;DHT22;2949;50.778;7.094;2023-05-21T00:41:36;12.00;99.90
5846;DHT22;2949;50.778;7.094;2023-05-21T00:44:02;12.00;99.90
5846;DHT22;2949;50.778;7.094;2023-05-21T00:46:28;12.00;99.90
5846;DHT22;2949;50.778;7.094;2023-05-21T00:48:54;12.00;99.90
5846;DHT22;2949;50.778;7.094;2023-05-21T00:51:22;12.00;99.90
5846;DHT22;2949;50.778;7.094;2023-05-21T00:53:51;12.00;99.90
5846;DHT22;2949;50.778;7.094;2023-05-21T00:56:19;12.00;99.90
5846;DHT22;2949;50.778;7.094;2023-05-21T00:58:46;12.00;99.90
5846;DHT22;2949;50.778;7.094;2023-05-21T01:01:12;12.00;99.90
5846;DHT22;2949;50.778;7.094;2023-05-21T01:03:38;12.00;99.90
5846;DHT22;2949;50.778;7.094;2023-05-21T01:06:05;12.00;99.90
5846;DHT22;2949;50.778;7.094;2023-05-21T01:08:31;12.00;99.90
5846;DHT22;2949;50.778;7.094;2023-05-21T01:10:58;12.00;99.90
5846;DHT22;2949;50.778;7.094;2023-05-21T01:13:24;12.00;99.90
5846;DHT22;2949;50.778;7.094;2023-05-21T01:15:51;12.00;99.90
5846;DHT22;2949;50.778;7.094;2023-05-21T01:18:18;12.00;99.90
5846;DHT22;2949;50.778;7.094;2023-05-21T01:20:45;12.00;99.90
5846;DHT22;2949;50.778;7.094;2023-05-21T01:23:16;12.00;99.90
5846;DHT22;2949;50.778;7.094;2023-05-21T01:25:42;12.00;99.90
5846;DHT22;2949;50.778;7.094;2023-05-21T01:28:08;12.10;99.90
5846;DHT22;2949;50.778;7.094;2023-05-21T01:30:34;12.10;99.90
5846;DHT22;2949;50.778;7.094;2023-05-21T01:36:12;12.10;99.90
5846;DHT22;2949;50.778;7.094;2023-05-21T01:38:46;12.10;99.90
5846;DHT22;2949;50.778;7.094;2023-05-21T01:41:17;12.10;99.90
5846;DHT22;2949;50.778;7.094;2023-05-21T01:43:44;12.10;99.90
5846;DHT22;2949;50.778;7.094;2023-05-21T01:46:15;12.10;99.90
5846;DHT22;2949;50.778;7.094;2023-05-21T01:48:42;12.10;99.90
5846;DHT22;2949;50.778;7.094;2023-05-21T01:51:08;12.10;99.90
5846;DHT22;2949;50.778;7.094;2023-05-21T01:53:34;12.10;99.90
5846;DHT22;2949;50.778;7.094;2023-05-21T01:56:00;12.00;99.90
5846;DHT22;2949;50.778;7.094;2023-05-21T01:58:27;12.00;99.90
5846;DHT22;2949;50.778;7.094;2023-05-21T02:00:52;12.00;99.90
5846;DHT22;2949;50.778;7.094;2023-05-21T02:03:19;12.00;99.90
5846;DHT22;2949;50.778;7.094;2023-05-21T02:05:45;12.00;99.90
5846;DHT22;2949;50.778;7.094;2023-05-21T02:08:12;12.00;99.90
5846;DHT22;2949;50.778;7.094;2023-05-21T02:10:39;12.00;99.90
5846;DHT22;2949;50.778;7.094;2023-05-21T02:13:05;12.10;99.90
5846;DHT22;2949;50.778;7.094;2023-05-21T02:15:30;12.10;99.90
5846;DHT22;2949;50.778;7.094;2023-05-21T02:17:58;12.10;99.90
5846;DHT22;2949;50.778;7.094;2023-05-21T02:20:24;12.10;99.90
5846;DHT22;2949;50.778;7.094;2023-05-21T02:22:49;12.10;99.90
5846;DHT22;2949;50.778;7.094;2023-05-21T02:25:16;12.10;99.90
5846;DHT22;2949;50.778;7.094;2023-05-21T02:27:43;12.10;99.90
5846;DHT22;2949;50.778;7.094;2023-05-21T02:30:10;12.10;99.90
5846;DHT22;2949;50.778;7.094;2023-05-21T02:32:36;12.10;99.90
5846;DHT22;2949;50.778;7.094;2023-05-21T02:35:04;12.10;99.90
5846;DHT22;2949;50.778;7.094;2023-05-21T02:37:30;12.10;99.90
5846;DHT22;2949;50.778;7.094;2023-05-21T02:40:00;12.10;99.90
5846;DHT22;2949;50.778;7.094;2023-05-21T02:42:25;12.10;99.90
5846;DHT22;2949;50.778;7.094;2023-05-21T02:44:51;12.10;99.90
5846;DHT22;2949;50.778;7.094;2023-05-21T02:47:18;12.10;99.90
5846;DHT22;2949;50.778;7.094;2023-05-21T02:49:43;12.10;99.90
5846;DHT22;2949;50.778;7.094;2023-05-21T02:52:09;12.10;99.90
5846;DHT22;2949;50.778;7.094;2023-05-21T02:54:34;12.10;99.90
5846;DHT22;2949;50.778;7.094;2023-05-21T02:57:00;12.10;99.90
5846;DHT22;2949;50.778;7.094;2023-05-21T02:59:26;12.10;99.90
5846;DHT22;2949;50.778;7.094;2023-05-21T03:01:51;12.10;99.90
5846;DHT22;2949;50.778;7.094;2023-05-21T03:04:17;12.10;99.90
5846;DHT22;2949;50.778;7.094;2023-05-21T03:06:43;12.10;99.90
5846;DHT22;2949;50.778;7.094;2023-05-21T03:09:09;12.10;99.90
5846;DHT22;2949;50.778;7.094;2023-05-21T03:11:35;12.10;99.90
5846;DHT22;2949;50.778;7.094;2023-05-21T03:14:00;12.10;99.90
5846;DHT22;2949;50.778;7.094;2023-05-21T03:16:26;12.10;99.90
5846;DHT22;2949;50.778;7.094;2023-05-21T03:18:53;12.10;99.90
5846;DHT22;2949;50.778;7.094;2023-05-21T03:21:18;12.10;99.90
5846;DHT22;2949;50.778;7.094;2023-05-21T03:23:49;12.10;99.90
5846;DHT22;2949;50.778;7.094;2023-05-21T03:26:15;12.10;99.90
5846;DHT22;2949;50.778;7.094;2023-05-21T03:28:41;12.00;99.90
5846;DHT22;2949;50.778;7.094;2023-05-21T03:31:06;12.00;99.90
5846;DHT22;2949;50.778;7.094;2023-05-21T03:33:32;12.00;99.90
5846;DHT22;2949;50.778;7.094;2023-05-21T03:35:57;12.10;99.90
5846;DHT22;2949;50.778;7.094;2023-05-21T03:38:23;12.00;99.90
5846;DHT22;2949;50.778;7.094;2023-05-21T03:40:48;12.10;99.90
5846;DHT22;2949;50.778;7.094;2023-05-21T03:43:14;12.10;99.90
5846;DHT22;2949;50.778;7.094;2023-05-21T03:45:39;12.10;99.90
5846;DHT22;2949;50.778;7.094;2023-05-21T03:48:05;12.10;99.90
5846;DHT22;2949;50.778;7.094;2023-05-21T03:50:31;12.10;99.90
5846;DHT22;2949;50.778;7.094;2023-05-21T03:52:56;12.10;99.90
5846;DHT22;2949;50.778;7.094;2023-05-21T03:55:22;12.10;99.90
5846;DHT22;2949;50.778;7.094;2023-05-21T03:57:47;12.10;99.90
5846;DHT22;2949;50.778;7.094;2023-05-21T04:00:13;12.10;99.90
5846;DHT22;2949;50.778;7.094;2023-05-21T04:02:39;12.10;99.90
5846;DHT22;2949;50.778;7.094;2023-05-21T04:05:05;12.20;99.90
5846;DHT22;2949;50.778;7.094;2023-05-21T04:07:31;12.20;99.90
5846;DHT22;2949;50.778;7.094;2023-05-21T04:09:56;12.30;99.90
5846;DHT22;2949;50.778;7.094;2023-05-21T04:12:22;12.30;99.90
5846;DHT22;2949;50.778;7.094;2023-05-21T04:14:47;12.30;99.90
5846;DHT22;2949;50.778;7.094;2023-05-21T04:17:13;12.30;99.90
5846;DHT22;2949;50.778;7.094;2023-05-21T04:19:39;12.40;99.90
5846;DHT22;2949;50.778;7.094;2023-05-21T04:22:05;12.40;99.90
5846;DHT22;2949;50.778;7.094;2023-05-21T04:24:30;12.40;99.90
5846;DHT22;2949;50.778;7.094;2023-05-21T04:26:56;12.50;99.90
5846;DHT22;2949;50.778;7.094;2023-05-21T04:29:28;12.50;99.90
5846;DHT22;2949;50.778;7.094;2023-05-21T04:31:54;12.50;99.90
5846;DHT22;2949;50.778;7.094;2023-05-21T04:34:20;12.60;99.90
5846;DHT22;2949;50.778;7.094;2023-05-21T04:36:46;12.70;99.90
5846;DHT22;2949;50.778;7.094;2023-05-21T04:39:12;12.70;99.90
5846;DHT22;2949;50.778;7.094;2023-05-21T04:41:39;12.80;99.90
5846;DHT22;2949;50.778;7.094;2023-05-21T04:44:08;12.80;99.90
5846;DHT22;2949;50.778;7.094;2023-05-21T04:46:33;12.80;99.90
5846;DHT22;2949;50.778;7.094;2023-05-21T04:49:02;12.90;99.90
5846;DHT22;2949;50.778;7.094;2023-05-21T04:51:29;12.90;99.90
5846;DHT22;2949;50.778;7.094;2023-05-21T04:53:55;13.00;99.90
5846;DHT22;2949;50.778;7.094;2023-05-21T04:56:22;13.10;99.90
5846;DHT22;2949;50.778;7.094;2023-05-21T04:58:54;13.10;99.90
5846;DHT22;2949;50.778;7.094;2023-05-21T05:01:20;13.20;99.90
5846;DHT22;2949;50.778;7.094;2023-05-21T05:03:50;13.20;99.90
5846;DHT22;2949;50.778;7.094;2023-05-21T05:06:15;13.30;99.90
5846;DHT22;2949;50.778;7.094;2023-05-21T05:08:41;13.40;99.90
5846;DHT22;2949;50.778;7.094;2023-05-21T05:11:07;13.50;99.90
5846;DHT22;2949;50.778;7.094;2023-05-21T05:13:33;13.60;99.90
5846;DHT22;2949;50.778;7.094;2023-05-21T05:15:59;13.70;99.90
5846;DHT22;2949;50.778;7.094;2023-05-21T05:18:25;13.80;99.90
5846;DHT22;2949;50.778;7.094;2023-05-21T05:20:50;13.90;99.90
5846;DHT22;2949;50.778;7.094;2023-05-21T05:23:16;13.90;99.90
5846;DHT22;2949;50.778;7.094;2023-05-21T05:25:41;14.00;99.90
5846;DHT22;2949;50.778;7.094;2023-05-21T05:28:07;14.10;99.90
5846;DHT22;2949;50.778;7.094;2023-05-21T05:30:32;14.10;99.90
5846;DHT22;2949;50.778;7.094;2023-05-21T05:32:59;14.20;99.90
5846;DHT22;2949;50.778;7.094;2023-05-21T05:35:25;14.20;99.90
5846;DHT22;2949;50.778;7.094;2023-05-21T05:37:50;14.30;99.90
5846;DHT22;2949;50.778;7.094;2023-05-21T05:40:16;14.30;99.90
5846;DHT22;2949;50.778;7.094;2023-05-21T05:42:41;14.40;99.90
5846;DHT22;2949;50.778;7.094;2023-05-21T05:45:07;14.50;99.90
5846;DHT22;2949;50.778;7.094;2023-05-21T05:47:33;14.60;99.90
5846;DHT22;2949;50.778;7.094;2023-05-21T05:49:58;14.70;99.90
5846;DHT22;2949;50.778;7.094;2023-05-21T05:52:24;14.80;99.90
5846;DHT22;2949;50.778;7.094;2023-05-21T05:54:49;15.00;99.90
5846;DHT22;2949;50.778;7.094;2023-05-21T05:57:15;15.20;99.90
5846;DHT22;2949;50.778;7.094;2023-05-21T05:59:40;15.40;99.90
5846;DHT22;2949;50.778;7.094;2023-05-21T06:02:06;15.70;99.90
5846;DHT22;2949;50.778;7.094;2023-05-21T06:04:31;15.80;99.90
5846;DHT22;2949;50.778;7.094;2023-05-21T06:06:57;16.10;99.90
5846;DHT22;2949;50.778;7.094;2023-05-21T06:09:24;16.40;99.90
5846;DHT22;2949;50.778;7.094;2023-05-21T06:11:49;16.80;99.90
5846;DHT22;2949;50.778;7.094;2023-05-21T06:14:15;16.90;99.90
5846;DHT22;2949;50.778;7.094;2023-05-21T06:16:41;17.10;99.90
5846;DHT22;2949;50.778;7.094;2023-05-21T06:19:06;17.30;99.90
5846;DHT22;2949;50.778;7.094;2023-05-21T06:21:32;17.50;99.90
5846;DHT22;2949;50.778;7.094;2023-05-21T06:23:57;17.70;99.90
5846;DHT22;2949;50.778;7.094;2023-05-21T06:26:23;17.80;99.90
5846;DHT22;2949;50.778;7.094;2023-05-21T06:28:48;18.00;99.90
5846;DHT22;2949;50.778;7.094;2023-05-21T06:31:14;18.20;99.90
5846;DHT22;2949;50.778;7.094;2023-05-21T06:33:40;18.30;99.90
5846;DHT22;2949;50.778;7.094;2023-05-21T06:36:06;18.50;99.90
5846;DHT22;2949;50.778;7.094;2023-05-21T06:38:32;19.00;99.90
5846;DHT22;2949;50.778;7.094;2023-05-21T06:40:58;19.60;99.90
5846;DHT22;2949;50.778;7.094;2023-05-21T06:43:23;20.40;99.90
5846;DHT22;2949;50.778;7.094;2023-05-21T06:45:49;21.30;99.90
5846;DHT22;2949;50.778;7.094;2023-05-21T06:48:15;22.20;99.90
5846;DHT22;2949;50.778;7.094;2023-05-21T22:47:43;16.80;99.90
5846;DHT22;2949;50.778;7.094;2023-05-21T23:29:10;16.40;99.90
5846;DHT22;2949;50.778;7.094;2023-05-21T23:31:35;15.90;99.90
5846;DHT22;2949;50.778;7.094;2023-05-21T23:34:01;15.90;99.90
5846;DHT22;2949;50.778;7.094;2023-05-21T23:36:29;15.90;99.90
5846;DHT22;2949;50.778;7.094;2023-05-21T23:38:55;15.80;99.90
5846;DHT22;2949;50.778;7.094;2023-05-21T23:41:20;15.80;99.90
5846;DHT22;2949;50.778;7.094;2023-05-21T23:43:47;15.80;99.90
5846;DHT22;2949;50.778;7.094;2023-05-21T23:46:12;15.80;99.90
5846;DHT22;2949;50.778;7.094;2023-05-21T23:53:30;15.80;99.90
5846;DHT22;2949;50.778;7.094;2023-05-21T23:55:56;15.70;99.90
5846;DHT22;2949;50.778;7.094;2023-05-21T23:58:21;15.70;99.90
